Time;durP1;ratioP1;P1;durP2;ratioP2;P2;SDS_P1;SDS_P2;PMS_P1;PMS_P2;Temp;Humidity;BMP_temperature;BMP_pressure;BME280_temperature;BME280_humidity;BME280_pressure;Samples;Min_cycle;Max_cycle;Signal;HPM_P1;HPM_P2
2023/07/09 00:02:12;;;;;;;6.30;5.70;;;24.10;80.40;;;;;;5056746;28;20457;-61
2023/07/09 00:04:41;;;;;;;8.57;7.30;;;24.00;80.30;;;;;;5053739;28;20469;-57
2023/07/09 00:07:17;;;;;;;8.47;6.43;;;24.10;80.40;;;;;;5052764;28;20461;-54
2023/07/09 00:09:44;;;;;;;7.63;6.27;;;24.10;80.40;;;;;;5056739;28;20881;-54
2023/07/09 00:12:14;;;;;;;9.30;6.67;;;24.10;80.40;;;;;;5060456;28;20468;-51
2023/07/09 00:14:41;;;;;;;7.13;6.33;;;24.10;80.40;;;;;;5056378;28;20507;-54
2023/07/09 00:17:11;;;;;;;8.33;6.63;;;24.10;80.40;;;;;;5061732;28;20465;-56
2023/07/09 00:19:40;;;;;;;7.23;6.00;;;24.10;80.40;;;;;;5062720;28;20497;-61
2023/07/09 00:22:16;;;;;;;6.87;6.20;;;24.10;80.40;;;;;;5064918;28;20461;-58
2023/07/09 00:24:44;;;;;;;7.37;6.70;;;24.10;80.80;;;;;;5063342;28;20522;-59
2023/07/09 00:27:11;;;;;;;7.13;6.50;;;24.10;80.40;;;;;;5063819;28;20989;-50
2023/07/09 00:29:37;;;;;;;7.90;7.10;;;24.10;80.40;;;;;;5063261;28;20825;-56
2023/07/09 00:32:06;;;;;;;6.70;6.00;;;24.10;80.30;;;;;;5063572;28;20463;-59
2023/07/09 00:34:33;;;;;;;7.20;6.50;;;24.10;80.40;;;;;;5064120;28;20487;-58
2023/07/09 00:37:01;;;;;;;7.00;6.37;;;24.10;80.40;;;;;;5063242;28;20455;-56
2023/07/09 00:39:28;;;;;;;7.90;7.10;;;24.00;81.00;;;;;;5062517;28;20464;-57
2023/07/09 00:41:54;;;;;;;6.47;5.60;;;24.10;80.40;;;;;;5064398;28;20476;-61
2023/07/09 00:44:29;;;;;;;7.67;5.97;;;24.10;80.40;;;;;;5063815;28;20477;-59
2023/07/09 00:47:25;;;;;;;6.13;5.53;;;24.10;80.40;;;;;;5056237;28;20456;-60
2023/07/09 00:50:03;;;;;;;6.10;5.50;;;24.10;80.40;;;;;;4994281;28;20464;-54
2023/07/09 00:52:35;;;;;;;8.33;7.53;;;24.10;80.40;;;;;;5055560;28;21079;-58
2023/07/09 00:55:06;;;;;;;6.50;5.50;;;24.10;80.40;;;;;;5058079;28;20992;-57
2023/07/09 00:57:33;;;;;;;6.17;5.57;;;24.10;80.40;;;;;;5064593;28;20468;-59
2023/07/09 01:00:07;;;;;;;6.43;5.83;;;24.10;80.30;;;;;;5063614;28;20488;-56
2023/07/09 01:02:34;;;;;;;5.83;5.33;;;24.10;80.40;;;;;;5065453;28;21968;-59
2023/07/09 01:05:03;;;;;;;7.33;6.50;;;24.10;80.40;;;;;;5062744;28;20483;-61
2023/07/09 01:07:31;;;;;;;7.40;6.70;;;24.00;80.30;;;;;;5062807;28;20492;-58
2023/07/09 01:09:58;;;;;;;6.60;6.00;;;24.10;80.40;;;;;;5058430;28;20954;-53
2023/07/09 01:12:26;;;;;;;7.00;5.93;;;24.00;80.40;;;;;;5058953;28;20453;-61
2023/07/09 01:14:58;;;;;;;7.47;6.77;;;24.00;80.40;;;;;;5060513;28;20484;-60
2023/07/09 01:17:27;;;;;;;6.87;6.27;;;24.00;80.30;;;;;;5057704;28;20569;-60
2023/07/09 01:19:55;;;;;;;6.83;6.07;;;24.00;80.30;;;;;;5068866;28;20456;-56
2023/07/09 01:22:25;;;;;;;6.30;5.80;;;24.10;80.40;;;;;;5063738;28;20453;-58
2023/07/09 01:25:00;;;;;;;5.77;5.23;;;24.00;80.30;;;;;;5070066;28;20566;-57
2023/07/09 01:27:29;;;;;;;6.07;5.53;;;24.00;80.30;;;;;;5071399;28;20456;-59
2023/07/09 01:29:59;;;;;;;7.40;6.70;;;24.00;80.30;;;;;;5064617;28;20471;-56
2023/07/09 01:32:26;;;;;;;6.57;5.90;;;24.00;80.30;;;;;;5060461;28;20459;-60
2023/07/09 01:34:55;;;;;;;6.20;5.60;;;24.00;80.30;;;;;;5063371;28;20496;-59
2023/07/09 01:37:26;;;;;;;6.30;5.70;;;24.00;80.30;;;;;;5060789;28;20463;-59
2023/07/09 01:39:53;;;;;;;5.33;4.83;;;24.00;80.30;;;;;;5061794;28;20459;-60
2023/07/09 01:42:23;;;;;;;6.70;5.87;;;24.00;80.30;;;;;;5063595;28;20817;-57
2023/07/09 01:44:51;;;;;;;6.40;5.80;;;24.00;80.30;;;;;;5062392;28;20471;-55
2023/07/09 01:47:17;;;;;;;7.60;6.83;;;24.00;80.30;;;;;;5070749;28;20489;-60
2023/07/09 01:49:46;;;;;;;7.07;6.07;;;24.00;80.40;;;;;;5064241;28;20467;-59
2023/07/09 01:52:16;;;;;;;6.60;5.90;;;24.00;80.30;;;;;;5070112;28;20461;-59
2023/07/09 01:54:49;;;;;;;7.47;6.60;;;24.00;80.40;;;;;;5069503;28;20472;-61
2023/07/09 01:57:19;;;;;;;6.67;5.97;;;24.00;80.30;;;;;;5065491;28;20965;-62
2023/07/09 01:59:46;;;;;;;6.90;6.20;;;24.00;80.30;;;;;;5060401;28;20575;-62
2023/07/09 02:02:18;;;;;;;6.27;5.67;;;24.00;80.30;;;;;;5060688;28;20457;-56
2023/07/09 02:04:50;;;;;;;6.90;6.30;;;24.00;80.30;;;;;;5062623;28;20457;-61
2023/07/09 02:07:17;;;;;;;6.17;5.57;;;24.00;80.30;;;;;;5063229;28;20977;-61
2023/07/09 02:09:45;;;;;;;6.57;5.97;;;24.00;80.30;;;;;;5063071;28;20467;-61
2023/07/09 02:12:13;;;;;;;6.73;6.03;;;24.00;80.30;;;;;;5063284;28;21221;-58
2023/07/09 02:14:41;;;;;;;5.53;5.03;;;24.00;80.30;;;;;;5061677;28;20500;-60
2023/07/09 02:17:08;;;;;;;6.20;5.67;;;24.00;80.30;;;;;;5055935;28;20464;-53
2023/07/09 02:19:35;;;;;;;6.37;5.87;;;24.00;80.30;;;;;;5057203;28;20911;-56
2023/07/09 02:22:02;;;;;;;6.40;5.80;;;24.00;80.40;;;;;;5055720;28;20460;-58
2023/07/09 02:24:29;;;;;;;6.13;5.60;;;24.00;80.30;;;;;;5051311;28;20456;-59
2023/07/09 02:26:59;;;;;;;6.10;5.47;;;24.00;80.30;;;;;;5060754;28;20523;-57
2023/07/09 02:29:27;;;;;;;8.80;5.77;;;24.00;80.30;;;;;;5060495;28;20460;-60
2023/07/09 02:31:55;;;;;;;7.70;6.50;;;24.00;80.30;;;;;;5057420;28;21810;-57
2023/07/09 02:34:25;;;;;;;6.20;5.70;;;24.00;81.10;;;;;;5062969;28;21227;-57
2023/07/09 02:36:52;;;;;;;6.63;6.03;;;24.00;80.30;;;;;;5066126;28;20871;-56
2023/07/09 02:39:20;;;;;;;6.13;5.53;;;24.00;80.30;;;;;;5066329;28;20449;-56
2023/07/09 02:41:46;;;;;;;5.50;5.00;;;24.00;80.30;;;;;;5066469;28;20487;-58
2023/07/09 02:44:14;;;;;;;6.53;5.73;;;24.00;80.30;;;;;;5063725;28;20829;-59
2023/07/09 02:46:41;;;;;;;6.80;6.20;;;24.00;80.30;;;;;;5065265;28;20468;-57
2023/07/09 02:49:10;;;;;;;7.10;5.90;;;24.00;80.30;;;;;;5066648;28;20977;-59
2023/07/09 02:51:38;;;;;;;6.03;5.50;;;24.00;80.30;;;;;;5065554;28;20464;-57
2023/07/09 02:54:05;;;;;;;6.60;6.00;;;24.00;80.30;;;;;;5059195;28;20480;-57
2023/07/09 02:56:31;;;;;;;6.73;5.67;;;24.00;80.30;;;;;;5067119;28;20468;-53
2023/07/09 02:58:58;;;;;;;6.27;5.73;;;24.00;80.30;;;;;;5065293;28;20457;-61
2023/07/09 03:01:26;;;;;;;7.03;6.33;;;24.00;80.40;;;;;;5054288;28;21740;-58
2023/07/09 03:03:54;;;;;;;6.23;5.43;;;24.00;80.30;;;;;;5060490;28;20551;-58
2023/07/09 03:06:21;;;;;;;6.23;5.50;;;24.00;80.30;;;;;;5055044;28;20457;-52
2023/07/09 03:08:48;;;;;;;5.97;5.43;;;24.00;80.30;;;;;;5056409;28;20574;-54
2023/07/09 03:11:17;;;;;;;6.17;5.57;;;24.00;80.30;;;;;;5063063;28;20460;-57
2023/07/09 03:13:44;;;;;;;6.73;6.03;;;24.00;80.30;;;;;;5061027;28;21720;-57
2023/07/09 03:16:11;;;;;;;6.43;5.80;;;24.00;80.30;;;;;;5059467;28;20460;-56
2023/07/09 03:18:39;;;;;;;5.53;5.03;;;24.00;80.30;;;;;;5067641;28;20487;-61
2023/07/09 03:21:06;;;;;;;6.43;5.83;;;24.00;80.30;;;;;;5067960;28;20453;-58
2023/07/09 03:23:33;;;;;;;6.33;5.60;;;24.00;80.30;;;;;;5066330;28;20487;-57
2023/07/09 03:26:00;;;;;;;5.97;5.40;;;24.00;80.30;;;;;;5067384;28;20825;-60
2023/07/09 03:28:27;;;;;;;6.27;5.67;;;24.00;80.30;;;;;;5066514;28;20686;-56
2023/07/09 03:30:55;;;;;;;8.17;6.03;;;23.90;80.60;;;;;;5063978;28;20871;-58
2023/07/09 03:33:23;;;;;;;6.00;5.50;;;24.00;80.40;;;;;;5067995;28;20468;-59
2023/07/09 03:35:51;;;;;;;5.97;5.40;;;24.00;80.40;;;;;;5068204;28;20503;-57
2023/07/09 03:38:18;;;;;;;6.57;5.60;;;24.00;80.60;;;;;;5063411;28;20459;-54
2023/07/09 03:40:45;;;;;;;6.70;6.10;;;24.00;80.70;;;;;;5068330;28;20955;-61
2023/07/09 03:43:12;;;;;;;6.73;5.80;;;24.00;80.60;;;;;;5067657;28;20452;-59
2023/07/09 03:45:39;;;;;;;6.03;5.43;;;24.00;80.60;;;;;;5064602;28;20489;-61
2023/07/09 03:48:06;;;;;;;6.00;5.43;;;24.00;80.70;;;;;;5059280;28;20830;-59
2023/07/09 03:50:33;;;;;;;5.00;4.50;;;24.00;80.70;;;;;;5060273;28;20458;-59
2023/07/09 03:53:01;;;;;;;7.10;6.03;;;24.00;80.80;;;;;;5069574;28;20787;-60
2023/07/09 03:55:28;;;;;;;5.03;4.53;;;24.00;80.70;;;;;;5061407;28;21294;-54
2023/07/09 03:57:55;;;;;;;6.70;6.00;;;24.00;80.70;;;;;;5068117;28;20460;-61
2023/07/09 04:00:22;;;;;;;5.80;5.20;;;24.00;80.70;;;;;;5067413;28;20808;-58
2023/07/09 04:02:49;;;;;;;6.70;6.10;;;24.00;80.70;;;;;;5070262;28;20461;-58
2023/07/09 04:05:16;;;;;;;6.00;5.30;;;24.00;81.50;;;;;;5061355;28;20456;-60
2023/07/09 04:07:42;;;;;;;6.47;5.80;;;24.00;80.70;;;;;;5057569;28;20464;-58
2023/07/09 04:10:11;;;;;;;6.50;5.90;;;24.00;80.80;;;;;;5055239;28;20453;-53
2023/07/09 04:12:38;;;;;;;7.67;6.10;;;24.00;80.90;;;;;;5062827;28;20469;-56
2023/07/09 04:15:06;;;;;;;6.10;5.53;;;24.00;80.90;;;;;;5058378;28;20483;-60
2023/07/09 04:17:32;;;;;;;6.33;5.80;;;24.00;80.90;;;;;;5056383;28;20576;-61
2023/07/09 04:19:59;;;;;;;5.70;5.20;;;24.00;80.90;;;;;;5061316;28;21179;-56
2023/07/09 04:22:26;;;;;;;7.10;6.47;;;24.00;80.90;;;;;;5056641;28;20764;-57
2023/07/09 04:24:53;;;;;;;7.03;6.37;;;24.00;80.90;;;;;;5056308;28;20483;-61
2023/07/09 04:27:21;;;;;;;6.47;5.87;;;24.00;80.90;;;;;;5057063;28;20457;-61
2023/07/09 04:29:48;;;;;;;5.93;5.33;;;24.00;80.90;;;;;;5056691;28;20461;-61
2023/07/09 04:32:16;;;;;;;5.63;5.13;;;24.00;81.00;;;;;;5056391;28;20453;-58
2023/07/09 04:34:43;;;;;;;5.70;5.10;;;24.00;81.00;;;;;;5068194;28;20484;-56
2023/07/09 04:37:11;;;;;;;8.23;6.20;;;24.00;81.00;;;;;;5059916;28;20456;-52
2023/07/09 04:39:38;;;;;;;6.60;6.00;;;24.00;81.00;;;;;;5055023;28;20868;-56
2023/07/09 04:42:07;;;;;;;6.93;6.23;;;24.00;81.00;;;;;;5062045;28;20460;-61
2023/07/09 04:44:35;;;;;;;6.77;6.13;;;24.00;81.20;;;;;;5055977;28;20820;-56
2023/07/09 04:47:02;;;;;;;7.10;6.40;;;24.00;81.20;;;;;;5051898;28;20460;-58
2023/07/09 04:49:29;;;;;;;6.00;5.40;;;24.00;81.20;;;;;;5063491;28;20995;-59
2023/07/09 04:51:58;;;;;;;6.40;5.73;;;24.00;81.20;;;;;;5054027;28;20460;-51
2023/07/09 04:54:25;;;;;;;6.17;5.60;;;24.00;81.20;;;;;;5063147;28;20979;-61
2023/07/09 04:56:52;;;;;;;6.30;5.80;;;24.00;81.30;;;;;;5066103;28;21268;-61
2023/07/09 04:59:19;;;;;;;5.50;5.00;;;24.00;81.30;;;;;;5063179;28;20461;-61
2023/07/09 05:01:48;;;;;;;5.70;5.20;;;24.00;81.30;;;;;;5051996;28;20487;-60
2023/07/09 05:04:14;;;;;;;6.30;5.70;;;24.00;81.30;;;;;;5058004;28;21144;-56
2023/07/09 05:06:40;;;;;;;6.07;5.57;;;24.00;81.30;;;;;;5057879;28;20465;-55
2023/07/09 05:09:07;;;;;;;5.57;5.07;;;24.00;81.30;;;;;;5055816;28;20453;-60
2023/07/09 05:11:36;;;;;;;6.90;5.43;;;24.00;81.30;;;;;;5051994;28;20191;-59
2023/07/09 05:14:03;;;;;;;7.27;5.20;;;24.00;81.40;;;;;;5050547;28;20469;-55
2023/07/09 05:16:30;;;;;;;6.50;5.90;;;24.00;81.40;;;;;;5056242;28;21082;-61
2023/07/09 05:18:58;;;;;;;6.80;6.10;;;24.00;81.40;;;;;;5060318;28;20464;-57
2023/07/09 05:21:25;;;;;;;8.40;5.47;;;24.00;81.40;;;;;;5054666;28;20461;-54
2023/07/09 05:23:52;;;;;;;5.23;4.73;;;24.00;81.50;;;;;;5056543;28;20465;-57
2023/07/09 05:26:18;;;;;;;5.77;5.20;;;24.00;81.50;;;;;;5056450;28;20460;-58
2023/07/09 05:28:45;;;;;;;6.13;5.53;;;24.00;81.50;;;;;;5053819;28;20805;-57
2023/07/09 05:31:12;;;;;;;6.17;5.40;;;24.00;81.50;;;;;;5048731;28;20464;-51
2023/07/09 05:33:39;;;;;;;5.43;4.93;;;24.00;81.60;;;;;;5054532;28;20461;-57
2023/07/09 05:36:08;;;;;;;5.30;4.80;;;24.00;81.60;;;;;;5059371;28;20566;-57
2023/07/09 05:38:34;;;;;;;5.67;5.07;;;24.00;81.60;;;;;;5056318;28;20817;-58
2023/07/09 05:41:03;;;;;;;6.57;5.90;;;24.00;81.60;;;;;;5056433;28;20461;-60
2023/07/09 05:43:30;;;;;;;6.00;5.40;;;24.00;81.70;;;;;;5059934;28;20460;-54
2023/07/09 05:45:57;;;;;;;6.40;5.80;;;23.90;81.60;;;;;;5056836;28;20456;-58
2023/07/09 05:48:24;;;;;;;5.03;4.53;;;24.00;81.80;;;;;;5055468;28;20449;-56
2023/07/09 05:50:55;;;;;;;6.13;5.53;;;24.00;81.70;;;;;;5058660;28;20657;-60
2023/07/09 05:53:24;;;;;;;5.93;5.33;;;24.00;81.70;;;;;;5057116;28;20499;-61
2023/07/09 05:55:54;;;;;;;6.13;5.53;;;24.00;81.80;;;;;;5064263;28;21026;-57
2023/07/09 05:58:20;;;;;;;5.10;4.70;;;24.00;81.80;;;;;;5064910;28;20467;-61
2023/07/09 06:00:53;;;;;;;5.40;4.83;;;24.00;81.80;;;;;;5052354;28;20465;-59
2023/07/09 06:03:21;;;;;;;5.47;4.97;;;24.00;81.80;;;;;;5054570;28;20459;-53
2023/07/09 06:05:49;;;;;;;5.17;4.67;;;24.00;81.90;;;;;;5056216;28;20531;-58
2023/07/09 06:08:16;;;;;;;6.10;5.50;;;24.00;81.80;;;;;;5056241;28;20461;-52
2023/07/09 06:10:53;;;;;;;5.30;4.77;;;24.00;81.80;;;;;;5054675;28;20463;-55
2023/07/09 06:13:20;;;;;;;5.40;4.90;;;24.00;81.90;;;;;;5057216;28;20461;-57
2023/07/09 06:15:47;;;;;;;5.80;5.30;;;24.00;81.90;;;;;;5056739;28;20567;-55
2023/07/09 06:18:14;;;;;;;5.83;5.33;;;24.00;81.90;;;;;;5060591;28;20956;-59
2023/07/09 06:20:41;;;;;;;6.27;5.67;;;24.00;81.90;;;;;;5052410;28;20475;-61
2023/07/09 06:23:08;;;;;;;5.40;4.90;;;24.00;81.90;;;;;;5057049;28;20847;-59
2023/07/09 06:25:35;;;;;;;5.67;5.17;;;24.00;81.90;;;;;;5054486;28;21266;-59
2023/07/09 06:28:03;;;;;;;6.33;4.90;;;24.00;81.90;;;;;;5058465;28;20480;-58
2023/07/09 06:30:30;;;;;;;5.53;5.00;;;24.00;82.00;;;;;;5057945;28;20982;-61
2023/07/09 06:32:56;;;;;;;5.30;4.80;;;24.00;82.00;;;;;;5059230;28;20952;-59
2023/07/09 06:35:23;;;;;;;5.73;5.20;;;24.00;82.00;;;;;;5063718;28;20481;-61
2023/07/09 06:37:50;;;;;;;5.60;5.10;;;24.00;82.00;;;;;;5057112;28;20533;-57
2023/07/09 06:40:16;;;;;;;5.10;4.60;;;24.00;82.80;;;;;;5060474;28;20467;-58
2023/07/09 06:42:43;;;;;;;6.03;5.43;;;24.00;82.00;;;;;;5060491;28;20473;-58
2023/07/09 06:45:11;;;;;;;6.07;5.23;;;23.90;81.90;;;;;;5054381;28;20465;-54
2023/07/09 06:47:38;;;;;;;5.37;4.80;;;24.00;82.10;;;;;;5059700;28;20453;-58
2023/07/09 06:50:06;;;;;;;5.83;5.23;;;24.00;82.00;;;;;;5066581;28;20466;-59
2023/07/09 06:52:32;;;;;;;6.70;6.10;;;24.00;82.10;;;;;;5063869;28;20461;-57
2023/07/09 06:54:59;;;;;;;5.50;4.90;;;24.00;82.10;;;;;;5065175;28;20868;-59
2023/07/09 06:57:26;;;;;;;4.27;3.97;;;24.00;82.10;;;;;;5063725;28;20464;-56
2023/07/09 06:59:52;;;;;;;6.07;5.47;;;24.00;82.10;;;;;;5063654;28;20463;-59
2023/07/09 07:02:20;;;;;;;4.77;4.37;;;24.00;82.10;;;;;;5064372;28;20472;-61
2023/07/09 07:04:47;;;;;;;6.13;5.47;;;24.00;82.20;;;;;;5062290;28;21008;-57
2023/07/09 07:07:14;;;;;;;5.40;4.90;;;24.00;82.30;;;;;;5059748;28;20460;-60
2023/07/09 07:09:40;;;;;;;5.37;4.87;;;24.00;82.30;;;;;;5061079;28;20487;-61
2023/07/09 07:12:08;;;;;;;5.60;4.97;;;24.00;82.30;;;;;;5061474;28;20966;-59
2023/07/09 07:14:35;;;;;;;7.13;5.40;;;24.00;82.40;;;;;;5060249;28;20496;-60
2023/07/09 07:17:02;;;;;;;6.70;6.00;;;24.00;82.40;;;;;;5059139;28;20473;-55
2023/07/09 07:19:30;;;;;;;5.20;4.70;;;24.00;82.30;;;;;;5057595;28;20534;-60
2023/07/09 07:21:57;;;;;;;5.80;5.20;;;24.00;82.10;;;;;;5059290;28;20459;-55
2023/07/09 07:24:23;;;;;;;5.37;4.57;;;24.00;82.00;;;;;;5058319;28;21036;-59
2023/07/09 07:26:50;;;;;;;4.63;4.23;;;24.00;82.00;;;;;;5065443;28;20886;-58
2023/07/09 07:29:17;;;;;;;5.60;4.47;;;24.00;82.00;;;;;;5055779;28;20899;-60
2023/07/09 07:31:43;;;;;;;5.20;4.80;;;24.00;81.90;;;;;;5054557;28;20515;-55
2023/07/09 07:34:11;;;;;;;5.30;4.80;;;24.00;82.40;;;;;;5056714;28;20471;-55
2023/07/09 07:36:39;;;;;;;4.60;4.30;;;24.00;82.30;;;;;;5060152;28;20597;-58
2023/07/09 07:39:06;;;;;;;4.70;4.30;;;24.00;82.50;;;;;;5053137;28;20451;-52
2023/07/09 07:41:32;;;;;;;6.10;4.43;;;24.00;82.50;;;;;;5057300;28;20946;-56
2023/07/09 07:43:59;;;;;;;5.23;4.73;;;24.10;82.80;;;;;;5061663;28;20457;-57
2023/07/09 07:46:26;;;;;;;4.53;4.20;;;24.10;82.90;;;;;;5061053;28;20486;-56
2023/07/09 07:48:53;;;;;;;5.70;4.57;;;24.10;82.90;;;;;;5054221;28;20957;-58
2023/07/09 07:51:20;;;;;;;6.13;5.20;;;24.10;83.30;;;;;;5062990;28;20478;-53
2023/07/09 07:53:48;;;;;;;4.67;4.23;;;24.10;83.30;;;;;;5059325;28;20737;-57
2023/07/09 07:56:15;;;;;;;4.67;4.27;;;24.10;83.40;;;;;;5061376;28;20584;-58
2023/07/09 07:58:42;;;;;;;5.60;4.50;;;24.10;83.70;;;;;;5064130;28;21046;-52
2023/07/09 08:01:08;;;;;;;4.60;4.20;;;24.10;83.90;;;;;;5065009;28;20468;-58
2023/07/09 08:03:35;;;;;;;5.30;4.47;;;24.10;83.80;;;;;;5068922;28;20813;-58
2023/07/09 08:06:02;;;;;;;6.13;4.43;;;24.10;84.00;;;;;;5067990;28;20543;-55
2023/07/09 08:08:29;;;;;;;4.60;4.20;;;24.10;84.20;;;;;;5057515;28;20993;-57
2023/07/09 08:11:04;;;;;;;4.70;3.90;;;24.20;84.50;;;;;;5057562;28;20460;-59
2023/07/09 08:13:32;;;;;;;5.27;4.77;;;24.10;84.50;;;;;;5055818;28;21078;-54
2023/07/09 08:15:58;;;;;;;4.43;4.03;;;24.20;84.50;;;;;;5063320;28;20484;-59
2023/07/09 08:18:25;;;;;;;5.03;4.30;;;24.10;84.50;;;;;;5062964;28;21270;-58
2023/07/09 08:20:52;;;;;;;6.07;5.40;;;24.20;84.50;;;;;;5068417;28;20464;-58
2023/07/09 08:23:19;;;;;;;4.43;4.03;;;24.20;84.60;;;;;;5067981;28;20518;-57
2023/07/09 08:25:52;;;;;;;5.00;4.60;;;24.20;84.70;;;;;;5067427;28;20503;-58
2023/07/09 08:28:20;;;;;;;4.90;4.50;;;24.20;84.80;;;;;;5066012;28;20464;-56
2023/07/09 08:30:47;;;;;;;6.00;4.77;;;24.20;85.00;;;;;;5065750;28;20466;-58
2023/07/09 08:33:14;;;;;;;4.30;3.90;;;24.20;85.00;;;;;;5069589;28;20492;-56
2023/07/09 08:35:43;;;;;;;6.23;4.60;;;24.20;85.20;;;;;;5068580;28;20488;-59
2023/07/09 08:38:10;;;;;;;4.43;4.03;;;24.20;85.10;;;;;;5064077;28;20829;-53
2023/07/09 08:40:41;;;;;;;5.50;4.70;;;24.20;85.40;;;;;;5068985;28;20464;-59
2023/07/09 08:43:17;;;;;;;4.20;3.80;;;24.20;85.40;;;;;;5070914;28;20452;-54
2023/07/09 08:45:52;;;;;;;4.50;4.10;;;24.20;85.30;;;;;;5067753;28;20485;-59
2023/07/09 08:48:27;;;;;;;5.17;4.60;;;24.20;85.20;;;;;;5067666;28;20782;-59
2023/07/09 08:50:58;;;;;;;5.77;5.00;;;24.20;85.30;;;;;;5060412;28;20449;-58
2023/07/09 08:53:32;;;;;;;7.13;5.17;;;24.20;85.30;;;;;;5057528;28;20911;-59
2023/07/09 08:55:59;;;;;;;4.60;4.20;;;24.20;85.40;;;;;;5060524;28;20506;-56
2023/07/09 08:58:29;;;;;;;4.40;4.00;;;24.20;85.40;;;;;;5070170;28;20472;-54
2023/07/09 09:01:00;;;;;;;4.90;4.10;;;24.20;85.30;;;;;;5067127;28;20463;-59
2023/07/09 09:03:35;;;;;;;6.00;5.10;;;24.20;85.30;;;;;;5069441;28;20465;-57
2023/07/09 09:06:02;;;;;;;5.43;4.50;;;24.20;85.30;;;;;;5067842;28;21058;-60
2023/07/09 09:08:40;;;;;;;4.73;4.33;;;24.20;85.30;;;;;;5064010;28;20463;-54
2023/07/09 09:11:15;;;;;;;5.60;4.90;;;24.20;85.70;;;;;;5062127;28;20511;-51
2023/07/09 09:13:43;;;;;;;4.70;4.30;;;24.20;86.00;;;;;;5054648;28;20491;-56
2023/07/09 09:16:22;;;;;;;5.93;5.20;;;24.20;86.00;;;;;;5050253;28;20522;-63
2023/07/09 09:18:49;;;;;;;5.10;4.63;;;24.20;86.30;;;;;;5058043;28;21373;-61
2023/07/09 09:21:23;;;;;;;5.87;4.80;;;24.20;86.60;;;;;;5056241;28;20467;-63
2023/07/09 09:23:53;;;;;;;5.90;5.07;;;24.30;87.20;;;;;;5060827;28;21830;-57
2023/07/09 09:26:34;;;;;;;5.73;5.10;;;24.30;87.50;;;;;;5058877;28;20643;-62
2023/07/09 09:29:01;;;;;;;7.10;5.00;;;24.30;87.90;;;;;;5067332;28;20472;-60
2023/07/09 09:31:30;;;;;;;7.00;4.90;;;24.30;88.30;;;;;;5060548;28;20456;-62
2023/07/09 09:33:57;;;;;;;7.00;4.20;;;24.30;88.30;;;;;;5059990;28;20456;-54
2023/07/09 09:36:26;;;;;;;8.60;5.47;;;24.30;88.90;;;;;;5054165;28;20743;-55
2023/07/09 09:38:53;;;;;;;9.77;5.57;;;24.30;88.90;;;;;;5058109;28;20971;-64
2023/07/09 09:41:22;;;;;;;5.20;4.70;;;24.30;89.20;;;;;;5056757;28;20479;-56
2023/07/09 09:43:52;;;;;;;5.57;5.00;;;24.30;89.20;;;;;;5060128;28;20459;-58
2023/07/09 09:46:21;;;;;;;5.20;4.70;;;24.30;89.00;;;;;;5058183;28;20459;-58
2023/07/09 09:48:54;;;;;;;6.67;5.10;;;24.30;89.00;;;;;;5064165;28;20461;-62
2023/07/09 09:51:20;;;;;;;5.00;4.60;;;24.30;88.90;;;;;;5070812;28;20990;-55
2023/07/09 09:53:50;;;;;;;6.87;5.33;;;24.30;89.20;;;;;;5070183;28;20460;-58
2023/07/09 09:56:20;;;;;;;6.00;4.77;;;24.30;89.60;;;;;;5062471;28;20564;-63
2023/07/09 09:58:47;;;;;;;5.07;4.50;;;24.30;89.30;;;;;;5062820;28;20460;-57
2023/07/09 10:01:17;;;;;;;7.13;4.90;;;24.30;89.30;;;;;;5063676;28;20461;-54
2023/07/09 10:03:45;;;;;;;5.40;4.70;;;24.30;89.80;;;;;;5069425;28;20463;-55
2023/07/09 10:06:19;;;;;;;5.43;4.97;;;24.30;89.50;;;;;;5071173;28;20882;-58
2023/07/09 10:08:57;;;;;;;8.70;4.80;;;24.30;89.50;;;;;;5069066;28;20482;-62
2023/07/09 10:11:46;;;;;;;5.20;4.70;;;24.30;89.50;;;;;;5068889;28;20465;-59
2023/07/09 10:14:31;;;;;;;5.33;4.50;;;24.30;89.60;;;;;;5068125;28;21045;-61
2023/07/09 10:17:04;;;;;;;5.53;5.00;;;24.30;89.30;;;;;;5069494;28;20488;-59
2023/07/09 10:19:40;;;;;;;5.47;4.97;;;24.30;88.30;;;;;;5068211;28;20459;-58
2023/07/09 10:22:17;;;;;;;6.80;4.93;;;24.30;88.30;;;;;;5065162;28;20462;-57
2023/07/09 10:24:55;;;;;;;6.17;5.20;;;24.30;88.10;;;;;;5063818;28;21279;-56
2023/07/09 10:27:32;;;;;;;6.27;5.67;;;24.30;88.40;;;;;;5068431;28;20460;-60
2023/07/09 10:30:16;;;;;;;8.20;5.20;;;24.30;88.40;;;;;;5067744;28;20908;-59
2023/07/09 10:32:53;;;;;;;4.73;4.27;;;24.30;88.30;;;;;;5067627;28;20614;-59
2023/07/09 10:35:29;;;;;;;6.70;5.53;;;24.30;87.90;;;;;;5067782;28;20582;-58
2023/07/09 10:38:15;;;;;;;5.23;4.73;;;24.30;88.00;;;;;;5066772;28;20635;-55
2023/07/09 10:40:46;;;;;;;5.27;4.80;;;24.30;88.10;;;;;;5070254;28;20858;-58
2023/07/09 10:43:19;;;;;;;5.40;4.90;;;24.30;88.40;;;;;;5070578;28;20459;-62
2023/07/09 10:45:49;;;;;;;5.53;4.73;;;24.30;88.10;;;;;;5068896;28;20452;-63
2023/07/09 10:48:19;;;;;;;7.40;5.50;;;24.30;88.00;;;;;;5069666;28;20947;-55
2023/07/09 10:50:49;;;;;;;4.90;4.50;;;24.30;88.00;;;;;;5073987;28;20461;-56
2023/07/09 10:53:29;;;;;;;5.23;4.67;;;24.30;87.80;;;;;;5071697;28;20466;-56
2023/07/09 10:56:00;;;;;;;4.83;4.40;;;24.30;87.80;;;;;;5069357;28;20468;-64
2023/07/09 10:58:35;;;;;;;5.27;4.57;;;24.30;87.60;;;;;;5067517;28;20467;-61
2023/07/09 11:01:03;;;;;;;5.07;4.57;;;24.40;87.70;;;;;;5067091;28;20463;-59
2023/07/09 11:03:38;;;;;;;5.47;4.97;;;24.40;87.60;;;;;;5064879;28;20457;-60
2023/07/09 11:06:06;;;;;;;5.47;4.93;;;24.40;87.60;;;;;;5067734;28;20460;-55
2023/07/09 11:08:37;;;;;;;6.33;5.33;;;24.40;87.50;;;;;;5067545;28;20590;-61
2023/07/09 11:11:10;;;;;;;5.33;4.83;;;24.40;87.50;;;;;;5068421;28;20457;-61
2023/07/09 11:13:42;;;;;;;6.97;4.80;;;24.40;87.50;;;;;;5065167;28;20487;-57
2023/07/09 11:16:13;;;;;;;6.23;4.93;;;24.40;87.30;;;;;;5069513;28;20488;-55
2023/07/09 11:18:39;;;;;;;4.47;4.07;;;24.40;87.50;;;;;;5070524;28;20452;-53
2023/07/09 11:21:08;;;;;;;5.23;4.83;;;24.40;87.50;;;;;;5070108;28;20443;-58
2023/07/09 11:23:44;;;;;;;4.77;4.30;;;24.40;87.30;;;;;;5068681;28;20465;-61
2023/07/09 11:26:13;;;;;;;4.90;4.30;;;24.40;88.30;;;;;;5066382;28;20845;-61
2023/07/09 11:28:47;;;;;;;6.33;4.77;;;24.40;87.30;;;;;;5071792;28;20443;-57
2023/07/09 11:31:21;;;;;;;4.87;4.47;;;24.40;87.40;;;;;;5067279;28;20851;-49
2023/07/09 11:33:50;;;;;;;6.30;4.27;;;24.40;87.30;;;;;;5067550;28;20460;-63
2023/07/09 11:36:26;;;;;;;6.17;4.40;;;24.40;87.50;;;;;;5070929;28;20519;-61
2023/07/09 11:38:54;;;;;;;4.30;3.90;;;24.40;87.50;;;;;;5077679;28;20555;-61
2023/07/09 11:41:29;;;;;;;4.07;3.63;;;24.40;87.50;;;;;;5072643;28;20548;-59
2023/07/09 11:44:04;;;;;;;4.63;4.13;;;24.40;87.60;;;;;;5076264;28;20543;-59
2023/07/09 11:46:33;;;;;;;5.33;4.17;;;24.40;87.60;;;;;;5068213;28;20486;-56
2023/07/09 11:49:02;;;;;;;5.07;4.40;;;24.40;87.60;;;;;;5079252;28;20514;-63
2023/07/09 11:51:37;;;;;;;5.63;4.97;;;24.40;87.60;;;;;;5072884;28;20457;-51
2023/07/09 11:54:05;;;;;;;3.80;3.50;;;24.40;87.60;;;;;;5078197;28;20546;-60
2023/07/09 11:56:33;;;;;;;6.27;4.87;;;24.40;87.50;;;;;;5071956;28;20875;-60
2023/07/09 11:59:00;;;;;;;4.70;4.20;;;24.60;88.30;;;;;;5068535;28;20456;-62
2023/07/09 12:01:31;;;;;;;4.57;4.17;;;24.40;87.60;;;;;;5063526;28;20462;-60
2023/07/09 12:03:59;;;;;;;5.37;4.83;;;24.40;87.50;;;;;;5065707;28;20448;-63
2023/07/09 12:06:28;;;;;;;4.13;3.60;;;24.40;87.60;;;;;;5062637;28;20468;-62
2023/07/09 12:08:56;;;;;;;5.00;4.50;;;24.50;87.70;;;;;;5057977;28;20943;-60
2023/07/09 12:11:26;;;;;;;4.80;4.40;;;24.50;87.60;;;;;;5059130;28;20468;-58
2023/07/09 12:13:54;;;;;;;5.13;4.63;;;24.50;87.70;;;;;;5057896;28;20457;-57
2023/07/09 12:16:26;;;;;;;4.97;4.50;;;24.50;87.80;;;;;;5061482;28;20461;-53
2023/07/09 12:18:53;;;;;;;4.17;3.83;;;24.50;87.80;;;;;;5063257;28;20847;-62
2023/07/09 12:21:20;;;;;;;5.57;5.13;;;24.50;87.70;;;;;;5058752;28;20771;-62
2023/07/09 12:23:47;;;;;;;4.37;3.97;;;24.50;87.70;;;;;;5062680;28;20480;-60
2023/07/09 12:26:17;;;;;;;5.07;4.57;;;24.50;87.80;;;;;;5062391;28;20479;-57
2023/07/09 12:28:51;;;;;;;4.47;4.07;;;24.50;87.80;;;;;;5063000;28;20475;-62
2023/07/09 12:31:18;;;;;;;5.30;4.80;;;24.50;87.90;;;;;;5059695;28;20457;-59
2023/07/09 12:33:49;;;;;;;4.90;4.40;;;24.50;88.10;;;;;;5065394;28;20467;-58
2023/07/09 12:36:18;;;;;;;4.63;4.23;;;24.50;88.00;;;;;;5069679;28;20609;-60
2023/07/09 12:38:46;;;;;;;4.90;4.23;;;24.50;88.10;;;;;;5075700;28;20553;-63
2023/07/09 12:41:27;;;;;;;5.33;4.37;;;24.50;88.20;;;;;;5072728;28;20469;-56
2023/07/09 12:43:56;;;;;;;4.30;3.70;;;24.50;88.20;;;;;;5070378;28;20464;-62
2023/07/09 12:46:24;;;;;;;5.17;4.53;;;24.50;88.10;;;;;;5064920;28;20464;-59
2023/07/09 12:48:51;;;;;;;4.63;4.23;;;24.50;88.10;;;;;;5075415;28;20995;-56
2023/07/09 12:51:24;;;;;;;4.40;3.90;;;24.50;88.20;;;;;;5068444;28;20926;-62
2023/07/09 12:54:02;;;;;;;4.57;4.07;;;24.50;88.10;;;;;;5072527;28;20445;-62
2023/07/09 12:56:29;;;;;;;4.80;4.40;;;24.50;88.10;;;;;;5071253;28;20459;-60
2023/07/09 12:58:59;;;;;;;5.20;4.30;;;24.50;88.00;;;;;;5070132;28;20483;-54